sensor_id;sensor_type;location;lat;lon;timestamp;pressure;altitude;pressure_sealevel;temperature;humidity
5679;BME280;2862;52.560;13.566;2022-12-11T00:01:47;100228.88;;;-0.65;89.04
5679;BME280;2862;52.560;13.566;2022-12-11T00:11:52;100217.22;;;-0.78;89.46
5679;BME280;2862;52.560;13.566;2022-12-11T00:21:55;100212.44;;;-0.89;89.71
5679;BME280;2862;52.560;13.566;2022-12-11T00:31:59;100204.22;;;-0.82;89.20
5679;BME280;2862;52.560;13.566;2022-12-11T00:42:02;100214.16;;;-0.88;89.33
5679;BME280;2862;52.560;13.566;2022-12-11T00:52:06;100201.81;;;-0.86;90.81
5679;BME280;2862;52.560;13.566;2022-12-11T01:02:09;100209.91;;;-0.91;91.57
5679;BME280;2862;52.560;13.566;2022-12-11T01:12:14;100215.44;;;-0.97;92.30
5679;BME280;2862;52.560;13.566;2022-12-11T01:22:16;100220.22;;;-1.07;92.50
5679;BME280;2862;52.560;13.566;2022-12-11T01:32:21;100224.34;;;-1.01;92.40
5679;BME280;2862;52.560;13.566;2022-12-11T01:42:25;100208.59;;;-1.01;92.19
5679;BME280;2862;52.560;13.566;2022-12-11T01:52:30;100216.09;;;-1.12;91.96
5679;BME280;2862;52.560;13.566;2022-12-11T02:02:34;100220.47;;;-1.13;92.01
5679;BME280;2862;52.560;13.566;2022-12-11T02:12:45;100219.44;;;-1.09;92.01
5679;BME280;2862;52.560;13.566;2022-12-11T02:23:08;100228.16;;;-1.28;93.01
5679;BME280;2862;52.560;13.566;2022-12-11T02:33:22;100226.38;;;-1.08;93.20
5679;BME280;2862;52.560;13.566;2022-12-11T02:43:27;100204.09;;;-0.97;92.12
5679;BME280;2862;52.560;13.566;2022-12-11T02:53:36;100213.97;;;-1.04;92.60
5679;BME280;2862;52.560;13.566;2022-12-11T03:03:40;100188.34;;;-0.78;92.17
5679;BME280;2862;52.560;13.566;2022-12-11T03:13:45;100205.88;;;-0.79;91.67
5679;BME280;2862;52.560;13.566;2022-12-11T03:23:51;100203.47;;;-0.84;91.72
5679;BME280;2862;52.560;13.566;2022-12-11T03:34:02;100205.31;;;-0.86;92.47
5679;BME280;2862;52.560;13.566;2022-12-11T03:44:08;100200.63;;;-0.79;92.02
5679;BME280;2862;52.560;13.566;2022-12-11T03:54:12;100189.41;;;-0.83;92.42
5679;BME280;2862;52.560;13.566;2022-12-11T04:04:16;100187.91;;;-0.88;92.80
5679;BME280;2862;52.560;13.566;2022-12-11T04:14:20;100182.00;;;-0.93;92.88
5679;BME280;2862;52.560;13.566;2022-12-11T04:24:41;100179.59;;;-0.98;92.76
5679;BME280;2862;52.560;13.566;2022-12-11T04:34:45;100187.25;;;-0.93;92.06
5679;BME280;2862;52.560;13.566;2022-12-11T04:44:48;100194.63;;;-1.22;92.80
5679;BME280;2862;52.560;13.566;2022-12-11T04:54:52;100194.31;;;-1.35;94.10
5679;BME280;2862;52.560;13.566;2022-12-11T05:04:55;100192.63;;;-1.36;94.25
5679;BME280;2862;52.560;13.566;2022-12-11T05:15:00;100191.69;;;-1.35;94.38
5679;BME280;2862;52.560;13.566;2022-12-11T05:25:04;100189.16;;;-1.36;94.62
5679;BME280;2862;52.560;13.566;2022-12-11T05:35:08;100188.22;;;-1.35;94.69
5679;BME280;2862;52.560;13.566;2022-12-11T05:45:11;100185.53;;;-1.34;93.53
5679;BME280;2862;52.560;13.566;2022-12-11T05:55:17;100173.09;;;-1.49;93.66
5679;BME280;2862;52.560;13.566;2022-12-11T06:05:20;100160.00;;;-1.49;92.47
5679;BME280;2862;52.560;13.566;2022-12-11T06:15:24;100165.97;;;-1.67;87.84
5679;BME280;2862;52.560;13.566;2022-12-11T06:25:29;100169.84;;;-1.76;86.42
5679;BME280;2862;52.560;13.566;2022-12-11T06:35:33;100171.41;;;-1.92;86.14
5679;BME280;2862;52.560;13.566;2022-12-11T06:45:40;100170.00;;;-2.01;85.81
5679;BME280;2862;52.560;13.566;2022-12-11T06:55:45;100181.59;;;-2.06;85.90
5679;BME280;2862;52.560;13.566;2022-12-11T07:05:49;100184.44;;;-2.13;85.91
5679;BME280;2862;52.560;13.566;2022-12-11T07:15:54;100188.97;;;-2.16;85.43
5679;BME280;2862;52.560;13.566;2022-12-11T07:26:03;100182.13;;;-2.20;85.12
5679;BME280;2862;52.560;13.566;2022-12-11T07:36:11;100202.06;;;-2.16;85.37
5679;BME280;2862;52.560;13.566;2022-12-11T07:46:17;100199.53;;;-2.19;84.40
5679;BME280;2862;52.560;13.566;2022-12-11T07:56:22;100199.25;;;-2.33;84.87
5679;BME280;2862;52.560;13.566;2022-12-11T08:06:28;100219.38;;;-1.70;91.37
5679;BME280;2862;52.560;13.566;2022-12-11T08:16:32;100195.59;;;-0.84;86.70
5679;BME280;2862;52.560;13.566;2022-12-11T08:26:36;100204.78;;;-0.75;78.58
5679;BME280;2862;52.560;13.566;2022-12-11T08:36:40;100209.50;;;-1.63;81.19
5679;BME280;2862;52.560;13.566;2022-12-11T08:46:44;100210.88;;;-1.75;82.11
5679;BME280;2862;52.560;13.566;2022-12-11T08:56:48;100210.13;;;-1.78;83.05
5679;BME280;2862;52.560;13.566;2022-12-11T09:06:55;100206.16;;;-1.67;82.21
5679;BME280;2862;52.560;13.566;2022-12-11T09:16:59;100217.84;;;-1.53;82.59
5679;BME280;2862;52.560;13.566;2022-12-11T09:27:02;100204.06;;;-1.58;82.20
5679;BME280;2862;52.560;13.566;2022-12-11T09:37:07;100206.19;;;-1.46;82.26
5679;BME280;2862;52.560;13.566;2022-12-11T09:47:15;100193.41;;;-1.34;84.91
5679;BME280;2862;52.560;13.566;2022-12-11T09:57:30;100180.75;;;-1.24;88.39
5679;BME280;2862;52.560;13.566;2022-12-11T10:07:39;100167.59;;;-1.03;84.18
5679;BME280;2862;52.560;13.566;2022-12-11T10:17:46;100155.66;;;-1.11;85.80
5679;BME280;2862;52.560;13.566;2022-12-11T10:27:49;100149.47;;;-1.08;81.71
5679;BME280;2862;52.560;13.566;2022-12-11T10:37:58;100139.97;;;-1.31;82.76
5679;BME280;2862;52.560;13.566;2022-12-11T10:48:05;100140.44;;;-1.42;83.22
5679;BME280;2862;52.560;13.566;2022-12-11T10:58:16;100131.47;;;-1.36;83.37
5679;BME280;2862;52.560;13.566;2022-12-11T11:08:20;100124.53;;;-1.37;83.33
5679;BME280;2862;52.560;13.566;2022-12-11T11:18:27;100115.03;;;-1.21;82.60
5679;BME280;2862;52.560;13.566;2022-12-11T11:28:35;100114.25;;;-1.23;82.77
5679;BME280;2862;52.560;13.566;2022-12-11T11:38:43;100096.19;;;-1.10;83.05
5679;BME280;2862;52.560;13.566;2022-12-11T11:48:53;100079.19;;;-1.01;83.29
5679;BME280;2862;52.560;13.566;2022-12-11T11:59:06;100072.25;;;-0.84;82.70
5679;BME280;2862;52.560;13.566;2022-12-11T12:09:21;100057.75;;;-0.73;82.53
5679;BME280;2862;52.560;13.566;2022-12-11T12:19:40;100064.84;;;-0.57;82.13
5679;BME280;2862;52.560;13.566;2022-12-11T12:29:48;100063.75;;;-0.52;81.75
5679;BME280;2862;52.560;13.566;2022-12-11T12:40:02;100061.06;;;-0.70;83.49
5679;BME280;2862;52.560;13.566;2022-12-11T12:50:14;100055.19;;;-0.75;83.17
5679;BME280;2862;52.560;13.566;2022-12-11T13:00:31;100060.09;;;-0.86;83.78
5679;BME280;2862;52.560;13.566;2022-12-11T13:10:36;100049.75;;;-0.89;84.48
5679;BME280;2862;52.560;13.566;2022-12-11T13:20:47;100060.72;;;-0.81;85.07
5679;BME280;2862;52.560;13.566;2022-12-11T13:31:00;100046.63;;;-0.78;85.20
5679;BME280;2862;52.560;13.566;2022-12-11T13:41:09;100052.09;;;-0.83;85.61
5679;BME280;2862;52.560;13.566;2022-12-11T13:51:20;100043.00;;;-0.76;85.47
5679;BME280;2862;52.560;13.566;2022-12-11T14:01:28;100040.75;;;-0.84;86.43
5679;BME280;2862;52.560;13.566;2022-12-11T14:11:35;100020.53;;;-1.00;87.12
5679;BME280;2862;52.560;13.566;2022-12-11T14:21:40;100023.00;;;-0.78;87.66
5679;BME280;2862;52.560;13.566;2022-12-11T14:31:43;100022.66;;;-0.90;87.73
5679;BME280;2862;52.560;13.566;2022-12-11T14:41:53;100027.59;;;-0.65;87.44
5679;BME280;2862;52.560;13.566;2022-12-11T14:52:00;100032.53;;;-0.95;88.16
5679;BME280;2862;52.560;13.566;2022-12-11T15:02:22;100030.16;;;-0.82;88.81
5679;BME280;2862;52.560;13.566;2022-12-11T15:12:26;100032.50;;;-0.76;88.68
5679;BME280;2862;52.560;13.566;2022-12-11T15:22:31;100022.16;;;-0.79;88.64
5679;BME280;2862;52.560;13.566;2022-12-11T15:32:34;100032.72;;;-0.81;89.40
5679;BME280;2862;52.560;13.566;2022-12-11T15:42:40;100035.84;;;-0.72;89.16
5679;BME280;2862;52.560;13.566;2022-12-11T15:52:44;100034.72;;;-0.86;90.76
5679;BME280;2862;52.560;13.566;2022-12-11T16:02:49;100035.34;;;-0.99;91.26
5679;BME280;2862;52.560;13.566;2022-12-11T16:12:53;100038.63;;;-0.94;91.55
5679;BME280;2862;52.560;13.566;2022-12-11T16:23:01;100041.13;;;-0.91;91.41
5679;BME280;2862;52.560;13.566;2022-12-11T16:33:05;100032.53;;;-0.95;91.89
5679;BME280;2862;52.560;13.566;2022-12-11T16:43:14;100035.72;;;-0.88;91.89
5679;BME280;2862;52.560;13.566;2022-12-11T16:53:17;100024.38;;;-0.89;92.16
5679;BME280;2862;52.560;13.566;2022-12-11T17:03:21;100025.22;;;-0.88;92.25
5679;BME280;2862;52.560;13.566;2022-12-11T17:13:24;100019.31;;;-0.93;92.35
5679;BME280;2862;52.560;13.566;2022-12-11T17:23:28;100014.59;;;-0.85;92.29
5679;BME280;2862;52.560;13.566;2022-12-11T17:33:30;100017.16;;;-1.02;93.44
5679;BME280;2862;52.560;13.566;2022-12-11T17:43:34;100014.38;;;-0.99;93.82
5679;BME280;2862;52.560;13.566;2022-12-11T17:53:37;100008.34;;;-1.01;94.16
5679;BME280;2862;52.560;13.566;2022-12-11T18:03:42;100004.16;;;-1.05;94.71
5679;BME280;2862;52.560;13.566;2022-12-11T18:13:46;100014.59;;;-1.04;94.57
5679;BME280;2862;52.560;13.566;2022-12-11T18:23:51;100010.91;;;-1.00;94.89
5679;BME280;2862;52.560;13.566;2022-12-11T18:33:54;100011.72;;;-0.81;94.14
5679;BME280;2862;52.560;13.566;2022-12-11T18:43:59;100010.81;;;-0.98;94.62
5679;BME280;2862;52.560;13.566;2022-12-11T18:54:05;100014.88;;;-0.91;94.36
5679;BME280;2862;52.560;13.566;2022-12-11T19:04:12;100011.03;;;-0.84;93.95
5679;BME280;2862;52.560;13.566;2022-12-11T19:14:15;100009.13;;;-0.99;94.54
5679;BME280;2862;52.560;13.566;2022-12-11T19:24:21;100020.25;;;-0.94;94.37
5679;BME280;2862;52.560;13.566;2022-12-11T19:34:24;100018.28;;;-0.89;94.29
5679;BME280;2862;52.560;13.566;2022-12-11T19:44:29;100024.28;;;-0.87;93.93
5679;BME280;2862;52.560;13.566;2022-12-11T19:54:32;100024.56;;;-0.93;94.55
5679;BME280;2862;52.560;13.566;2022-12-11T20:04:37;100030.88;;;-0.78;93.73
5679;BME280;2862;52.560;13.566;2022-12-11T20:14:40;100021.78;;;-0.71;93.31
5679;BME280;2862;52.560;13.566;2022-12-11T20:24:45;100012.44;;;-0.77;93.35
5679;BME280;2862;52.560;13.566;2022-12-11T20:34:48;100013.19;;;-0.75;93.05
5679;BME280;2862;52.560;13.566;2022-12-11T20:44:52;100021.41;;;-0.64;92.86
5679;BME280;2862;52.560;13.566;2022-12-11T20:54:55;100017.72;;;-0.60;92.54
5679;BME280;2862;52.560;13.566;2022-12-11T21:05:00;100009.88;;;-0.78;92.75
5679;BME280;2862;52.560;13.566;2022-12-11T21:15:04;100016.28;;;-0.84;92.97
5679;BME280;2862;52.560;13.566;2022-12-11T21:25:10;100010.59;;;-0.94;93.68
5679;BME280;2862;52.560;13.566;2022-12-11T21:35:13;100000.75;;;-0.89;93.64
5679;BME280;2862;52.560;13.566;2022-12-11T21:45:17;99995.59;;;-1.09;94.32
5679;BME280;2862;52.560;13.566;2022-12-11T21:55:41;99988.28;;;-1.21;95.43
5679;BME280;2862;52.560;13.566;2022-12-11T22:05:45;99986.56;;;-1.03;94.98
5679;BME280;2862;52.560;13.566;2022-12-11T22:15:48;100000.66;;;-0.87;94.48
5679;BME280;2862;52.560;13.566;2022-12-11T22:25:52;100014.59;;;-1.04;94.92
5679;BME280;2862;52.560;13.566;2022-12-11T22:35:56;100009.06;;;-1.17;95.88
5679;BME280;2862;52.560;13.566;2022-12-11T22:46:01;100021.88;;;-1.11;96.21
5679;BME280;2862;52.560;13.566;2022-12-11T22:56:04;100018.06;;;-1.03;96.05
5679;BME280;2862;52.560;13.566;2022-12-11T23:06:11;100009.28;;;-1.02;96.38
5679;BME280;2862;52.560;13.566;2022-12-11T23:16:14;100005.50;;;-0.78;95.47
5679;BME280;2862;52.560;13.566;2022-12-11T23:26:19;100003.91;;;-0.82;95.85
5679;BME280;2862;52.560;13.566;2022-12-11T23:36:24;99986.56;;;-0.85;95.94
5679;BME280;2862;52.560;13.566;2022-12-11T23:46:29;99961.94;;;-1.18;98.28
5679;BME280;2862;52.560;13.566;2022-12-11T23:56:33;99983.94;;;-1.03;97.85
